aviador You're here:

KTVF Decoded Metar

THIEF RIVER in MN, USA
Report Time2018-01-22 01:01:00
UTC Time2018-01-22 02:00:36
Flight Rules ifr IFR
Wind040° at 07 kt
W.Decomp.*RWY 03: 7.0 kt HW 0.6 kt RCW
RWY 31: 0.6 kt HW 7.0 kt RCW
W.Rank040° ranks 35
Current wind is below 040° avg. (7.7)
Visibility9999 m
Phenomena:N/A
Clouds:Overcast 007 Hf
Expected CloudBase > 800 ft AGL from Temp-Dew spread
Ceiling700 ft
Temp-4°C (ISA -17)
Dew Point-6°C (86% RH)
AAT-9.2°C
QNH1019 hPa
Density Alt-1,096 ft
Elevation1,115 ft
Report Wrong Elevation
Raw Report
METAR KTVF 220101Z AUTO 04007KT 10SM OVC007 M04/M06 A3010 RMK AO2 SLP216
T10441056 FZRANO=

Extra information for KTVF:More info

Metar Taf Metar & Taf Last 4 Metars F.Rules Stats Wind Profile Meteogram Temp Stats Airport Information Weather charts Add Link Nearby VenuesMetar ALERT Operation Metar Decoded Social comments

AIRNAV info for KTVF